Time;durP1;ratioP1;P1;durP2;ratioP2;P2;SDS_P1;SDS_P2;PMS_P1;PMS_P2;Temp;Humidity;BMP_temperature;BMP_pressure;BME280_temperature;BME280_humidity;BME280_pressure;Samples;Min_cycle;Max_cycle;Signal;HPM_P1;HPM_P2
2022/09/28 00:01:21;;;;;;;36.38;27.60;;;;;;;18.44;100.00;98943.11;1720888;82;21079;-69
2022/09/28 00:03:51;;;;;;;37.00;27.42;;;;;;;18.43;100.00;98940.19;1720969;83;21059;-69
2022/09/28 00:06:23;;;;;;;36.93;27.05;;;;;;;18.42;100.00;98934.14;1720945;83;21074;-68
2022/09/28 00:08:50;;;;;;;37.50;29.27;;;;;;;18.37;100.00;98936.41;1720989;83;21096;-70
2022/09/28 00:11:20;;;;;;;41.85;29.60;;;;;;;18.32;100.00;98936.05;1720728;83;21083;-70
2022/09/28 00:13:55;;;;;;;37.28;29.77;;;;;;;18.34;100.00;98938.02;1720852;83;21008;-70
2022/09/28 00:16:26;;;;;;;39.27;29.15;;;;;;;18.38;100.00;98929.41;1720948;82;21086;-71
2022/09/28 00:18:55;;;;;;;38.73;28.55;;;;;;;18.38;100.00;98925.50;1721005;83;21515;-71
2022/09/28 00:21:26;;;;;;;40.60;31.85;;;;;;;18.41;100.00;98923.41;1771695;81;21129;-71
2022/09/28 00:24:17;;;;;;;40.50;30.85;;;;;;;18.40;100.00;98924.86;1759684;81;21012;-71
2022/09/28 00:26:52;;;;;;;38.35;30.05;;;;;;;18.45;100.00;98922.61;1757060;80;21073;-70
2022/09/28 00:29:25;;;;;;;46.23;32.05;;;;;;;18.48;100.00;98929.29;1762502;80;21047;-71
2022/09/28 00:32:01;;;;;;;42.03;31.02;;;;;;;18.51;100.00;98932.41;1772263;80;21535;-71
2022/09/28 00:34:24;;;;;;;40.63;31.87;;;;;;;18.53;100.00;98941.34;1718108;81;21019;-71
2022/09/28 00:36:51;;;;;;;43.10;32.33;;;;;;;18.49;100.00;98939.56;1724683;82;21082;-70
2022/09/28 00:39:20;;;;;;;42.88;30.92;;;;;;;18.51;100.00;98934.17;1723827;81;21522;-70
2022/09/28 00:41:48;;;;;;;36.48;29.48;;;;;;;18.54;100.00;98926.86;1719946;82;21040;-71
2022/09/28 00:44:36;;;;;;;38.48;30.72;;;;;;;18.56;100.00;98918.89;1724643;82;21018;-71
2022/09/28 00:47:30;;;;;;;33.92;25.30;;;;;;;18.55;100.00;98912.03;1722876;81;21006;-71
2022/09/28 00:50:23;;;;;;;36.08;29.60;;;;;;;18.57;100.00;98925.26;1719216;81;21067;-71
2022/09/28 00:53:07;;;;;;;32.33;27.40;;;;;;;18.56;100.00;98931.92;1766087;81;20984;-71
2022/09/28 00:55:58;;;;;;;37.10;29.57;;;;;;;18.57;100.00;98941.36;1763333;80;21087;-71
2022/09/28 00:58:32;;;;;;;31.68;26.12;;;;;;;18.56;100.00;98948.37;1770497;81;21067;-71
2022/09/28 01:01:00;;;;;;;38.15;30.17;;;;;;;18.64;100.00;98940.27;1763695;80;21029;-70
2022/09/28 01:03:28;;;;;;;38.85;31.48;;;;;;;18.59;100.00;98949.37;1719952;82;21118;-71
2022/09/28 01:05:59;;;;;;;33.85;29.15;;;;;;;18.58;100.00;98941.70;1717668;83;21043;-71
2022/09/28 01:08:29;;;;;;;36.85;29.87;;;;;;;18.58;100.00;98939.91;1721505;83;21025;-71
2022/09/28 01:10:58;;;;;;;40.75;31.80;;;;;;;18.57;100.00;98938.29;1756780;80;21570;-71
2022/09/28 01:13:27;;;;;;;34.70;29.27;;;;;;;18.38;100.00;98934.13;1774153;80;21015;-71
2022/09/28 01:16:17;;;;;;;39.48;30.68;;;;;;;18.57;100.00;98931.77;1773179;81;21055;-71
2022/09/28 01:18:54;;;;;;;37.48;31.65;;;;;;;18.60;100.00;98931.94;1769575;80;21113;-71
2022/09/28 01:21:23;;;;;;;41.33;29.67;;;;;;;18.63;100.00;98935.52;1713521;83;21046;-71
2022/09/28 01:24:14;;;;;;;38.75;31.17;;;;;;;18.54;100.00;98938.59;1758829;80;21042;-71
2022/09/28 01:27:19;;;;;;;37.13;29.92;;;;;;;18.53;100.00;98938.28;1763302;80;21042;-71
2022/09/28 01:29:58;;;;;;;41.95;33.85;;;;;;;18.53;100.00;98943.48;1758043;80;21121;-70
2022/09/28 01:32:49;;;;;;;44.20;33.92;;;;;;;18.53;100.00;98946.56;1764440;80;21050;-72
2022/09/28 01:35:28;;;;;;;43.52;31.40;;;;;;;18.54;100.00;98938.59;1765636;80;21070;-72
2022/09/28 01:38:05;;;;;;;43.10;32.93;;;;;;;18.54;100.00;98939.89;1777919;80;21095;-71
2022/09/28 01:40:35;;;;;;;46.98;35.50;;;;;;;18.53;100.00;98942.65;1762690;80;21043;-71
2022/09/28 01:43:11;;;;;;;48.87;35.30;;;;;;;18.47;100.00;98936.77;1785128;80;21464;-71
2022/09/28 01:45:45;;;;;;;44.45;33.80;;;;;;;18.44;100.00;98936.59;1771806;80;21121;-71
2022/09/28 01:48:19;;;;;;;46.50;35.05;;;;;;;18.46;100.00;98930.74;1763896;80;21052;-71
2022/09/28 01:50:51;;;;;;;47.73;35.68;;;;;;;18.48;100.00;98935.80;1776407;80;21061;-71
2022/09/28 01:53:39;;;;;;;48.00;36.42;;;;;;;18.47;100.00;98938.91;1721477;82;21022;-71
2022/09/28 01:56:24;;;;;;;46.77;36.28;;;;;;;18.45;100.00;98940.84;1705897;82;21046;-70
2022/09/28 01:58:55;;;;;;;47.03;34.85;;;;;;;18.42;100.00;98934.63;1768773;80;21064;-70
2022/09/28 02:01:52;;;;;;;46.35;35.48;;;;;;;18.41;100.00;98933.02;1765842;80;21086;-71
2022/09/28 02:04:28;;;;;;;50.78;35.75;;;;;;;18.31;100.00;98931.83;1765446;80;21033;-70
2022/09/28 02:07:00;;;;;;;48.17;35.43;;;;;;;18.24;100.00;98931.30;1760066;80;21053;-71
2022/09/28 02:09:47;;;;;;;45.83;35.35;;;;;;;18.20;100.00;98928.19;1770816;80;21511;-70
2022/09/28 02:12:25;;;;;;;45.65;34.33;;;;;;;18.33;100.00;98930.34;1721433;83;21030;-71
2022/09/28 02:14:58;;;;;;;47.90;35.58;;;;;;;18.29;100.00;98938.98;1720404;82;21067;-71
2022/09/28 02:17:25;;;;;;;43.68;34.95;;;;;;;18.22;100.00;98943.17;1710198;83;21044;-71
2022/09/28 02:19:52;;;;;;;48.65;35.05;;;;;;;18.17;100.00;98951.95;1727900;83;21011;-71
2022/09/28 02:22:30;;;;;;;38.53;31.70;;;;;;;18.10;100.00;98959.53;1727200;82;21110;-70
2022/09/28 02:25:09;;;;;;;47.00;34.58;;;;;;;18.08;100.00;98960.17;1709546;83;21035;-71
2022/09/28 02:27:53;;;;;;;44.80;35.50;;;;;;;18.06;100.00;98961.31;1712679;83;21554;-71
2022/09/28 02:30:21;;;;;;;47.58;35.68;;;;;;;18.00;100.00;98957.52;1722526;83;20984;-71
2022/09/28 02:32:54;;;;;;;46.10;34.48;;;;;;;17.99;100.00;98958.51;1716347;82;21602;-71
2022/09/28 02:35:21;;;;;;;44.60;34.38;;;;;;;18.00;100.00;98952.31;1727067;83;21038;-71
2022/09/28 02:37:49;;;;;;;46.73;36.10;;;;;;;17.88;100.00;98942.64;1725934;83;21122;-72
2022/09/28 02:40:24;;;;;;;49.18;34.63;;;;;;;17.82;100.00;98940.16;1728223;83;21173;-71
2022/09/28 02:43:12;;;;;;;47.38;35.30;;;;;;;18.00;100.00;98935.39;1716444;82;20996;-70
2022/09/28 02:46:17;;;;;;;44.90;34.27;;;;;;;18.04;100.00;98934.11;1721435;81;21304;-70
2022/09/28 02:49:09;;;;;;;47.30;35.75;;;;;;;18.07;100.00;98929.91;1721334;81;21043;-71
2022/09/28 02:51:56;;;;;;;47.05;35.17;;;;;;;18.00;100.00;98922.38;1718683;80;21546;-71
2022/09/28 02:54:37;;;;;;;51.20;37.88;;;;;;;17.99;100.00;98929.38;1714450;81;21034;-71
2022/09/28 02:57:32;;;;;;;47.58;36.75;;;;;;;18.00;100.00;98931.48;1723422;82;21574;-71
2022/09/28 03:00:19;;;;;;;45.85;35.50;;;;;;;18.04;100.00;98929.40;1720694;80;21074;-70
2022/09/28 03:03:18;;;;;;;47.73;36.88;;;;;;;18.08;100.00;98934.14;1737907;81;21106;-71
2022/09/28 03:06:12;;;;;;;47.62;36.15;;;;;;;18.15;100.00;98941.67;1733834;81;21050;-71
2022/09/28 03:09:17;;;;;;;53.30;37.50;;;;;;;18.19;100.00;98942.19;1721489;81;21628;-71
2022/09/28 03:11:52;;;;;;;41.50;33.38;;;;;;;18.21;100.00;98942.85;1724293;82;21051;-71
2022/09/28 03:14:19;;;;;;;50.88;36.03;;;;;;;18.26;100.00;98944.98;1714467;82;21019;-71
2022/09/28 03:16:51;;;;;;;46.35;35.70;;;;;;;18.28;100.00;98957.37;1708792;82;21543;-71
2022/09/28 03:19:24;;;;;;;44.58;32.63;;;;;;;18.32;100.00;98959.99;1735983;81;21059;-71
2022/09/28 03:21:51;;;;;;;44.13;33.75;;;;;;;18.35;100.00;98957.90;1733228;81;21491;-71
2022/09/28 03:24:18;;;;;;;46.40;35.00;;;;;;;18.39;100.00;98961.02;1772996;81;21477;-72
2022/09/28 03:26:45;;;;;;;47.98;35.45;;;;;;;18.44;100.00;98972.27;1761774;80;21004;-72
2022/09/28 03:29:12;;;;;;;44.42;34.35;;;;;;;18.41;100.00;98973.40;1758065;80;21032;-72
2022/09/28 03:31:39;;;;;;;46.48;34.70;;;;;;;18.42;100.00;98978.92;1765841;81;21063;-72
2022/09/28 03:34:08;;;;;;;45.60;34.80;;;;;;;18.45;100.00;98979.09;1748532;80;21115;-72
2022/09/28 03:36:36;;;;;;;47.00;34.92;;;;;;;18.47;100.00;98975.84;1728871;82;21091;-73
2022/09/28 03:39:03;;;;;;;51.13;34.92;;;;;;;18.48;100.00;98972.28;1738033;82;21087;-72
2022/09/28 03:41:31;;;;;;;43.70;34.43;;;;;;;18.48;100.00;98972.28;1729959;82;21520;-72
2022/09/28 03:43:58;;;;;;;43.35;34.50;;;;;;;18.51;100.00;98971.95;1737426;82;21039;-72
2022/09/28 03:46:26;;;;;;;43.25;33.05;;;;;;;18.51;100.00;98975.40;1733930;82;21003;-72
2022/09/28 03:49:01;;;;;;;39.35;31.02;;;;;;;18.45;100.00;98971.28;1737965;82;21074;-72
2022/09/28 03:51:25;;;;;;;39.65;33.25;;;;;;;18.47;100.00;98970.17;1723599;82;21082;-72
2022/09/28 03:53:53;;;;;;;47.50;35.70;;;;;;;18.51;100.00;98965.44;1665806;85;21093;-72
2022/09/28 03:56:20;;;;;;;43.63;34.98;;;;;;;18.48;100.00;98970.48;1673554;83;21066;-73
2022/09/28 03:58:48;;;;;;;46.02;34.78;;;;;;;18.52;100.00;98971.00;1699806;84;21118;-73
2022/09/28 04:01:15;;;;;;;46.37;35.38;;;;;;;18.54;100.00;98978.98;1687063;83;21092;-74
2022/09/28 04:03:42;;;;;;;47.10;35.17;;;;;;;18.52;100.00;98979.63;1697953;83;21056;-73
2022/09/28 04:06:10;;;;;;;42.35;34.80;;;;;;;18.49;100.00;98983.86;1696264;82;21071;-73
2022/09/28 04:08:37;;;;;;;49.13;34.92;;;;;;;18.47;100.00;98982.36;1688363;84;21057;-72
2022/09/28 04:11:05;;;;;;;45.75;35.73;;;;;;;18.46;100.00;98984.16;1681305;83;21117;-72
2022/09/28 04:13:32;;;;;;;42.70;34.73;;;;;;;18.50;100.00;98982.88;1683941;84;21066;-73
2022/09/28 04:16:00;;;;;;;45.75;32.80;;;;;;;18.50;100.00;99001.11;1680029;84;21105;-72
2022/09/28 04:18:32;;;;;;;43.68;33.90;;;;;;;18.48;100.00;99003.55;1657119;86;21013;-73
2022/09/28 04:21:16;;;;;;;44.45;33.90;;;;;;;18.47;100.00;99001.44;1681655;84;21106;-72
2022/09/28 04:23:46;;;;;;;43.48;33.60;;;;;;;18.42;100.00;99012.30;1715885;82;21023;-73
2022/09/28 04:26:17;;;;;;;48.50;33.95;;;;;;;18.41;100.00;99022.41;1741470;82;21048;-72
2022/09/28 04:31:48;;;;;;;43.10;31.95;;;;;;;18.48;100.00;99015.28;1734450;82;21070;-72
2022/09/28 04:34:19;;;;;;;41.45;33.05;;;;;;;18.53;100.00;99019.52;1738794;82;21052;-72
2022/09/28 04:36:47;;;;;;;45.20;33.53;;;;;;;18.56;100.00;99028.34;1733074;82;21071;-72
2022/09/28 04:39:18;;;;;;;38.38;32.38;;;;;;;18.61;100.00;99019.56;1740733;82;21121;-72
2022/09/28 04:41:49;;;;;;;44.13;32.78;;;;;;;18.69;100.00;99020.09;1734519;82;21079;-72
2022/09/28 04:44:16;;;;;;;41.92;32.33;;;;;;;18.79;100.00;99020.81;1738337;82;21051;-71
2022/09/28 04:46:45;;;;;;;38.23;30.17;;;;;;;18.90;100.00;99019.73;1755544;81;21058;-72
2022/09/28 04:49:17;;;;;;;42.88;31.60;;;;;;;19.03;100.00;99027.10;1735987;81;21062;-72
2022/09/28 04:51:51;;;;;;;39.13;29.70;;;;;;;19.11;100.00;99034.45;1753769;81;21050;-72
2022/09/28 04:54:18;;;;;;;39.55;30.35;;;;;;;19.27;100.00;99035.48;1758264;81;21086;-72
2022/09/28 04:56:46;;;;;;;37.42;28.55;;;;;;;19.41;100.00;99034.36;1758051;81;21047;-72
2022/09/28 04:59:13;;;;;;;36.68;28.52;;;;;;;19.61;100.00;99045.82;1755033;81;21092;-72
2022/09/28 05:01:41;;;;;;;36.40;28.73;;;;;;;19.60;100.00;99061.14;1754982;82;21039;-72
2022/09/28 05:04:27;;;;;;;32.38;26.05;;;;;;;19.59;100.00;99073.88;1755386;82;21043;-72
2022/09/28 05:06:58;;;;;;;38.53;28.45;;;;;;;19.57;100.00;99083.66;1755035;80;21071;-72
2022/09/28 05:09:25;;;;;;;34.15;26.68;;;;;;;19.42;100.00;99079.53;1754937;80;21543;-72
2022/09/28 05:11:52;;;;;;;39.73;29.02;;;;;;;19.44;100.00;99081.99;1754972;82;21019;-72
2022/09/28 05:14:22;;;;;;;37.30;28.65;;;;;;;19.31;100.00;99085.87;1750042;81;21083;-72
2022/09/28 05:16:49;;;;;;;37.00;28.23;;;;;;;19.30;100.00;99086.03;1757418;81;21101;-72
2022/09/28 05:19:29;;;;;;;31.62;25.77;;;;;;;19.28;100.00;99079.69;1755640;80;21051;-72
2022/09/28 05:22:03;;;;;;;40.50;30.17;;;;;;;19.26;100.00;99084.25;1758735;80;21062;-72
2022/09/28 05:24:33;;;;;;;36.63;28.03;;;;;;;19.16;100.00;99087.44;1755167;80;21031;-72
2022/09/28 05:27:00;;;;;;;37.30;28.10;;;;;;;19.21;100.00;99086.00;1754905;80;21484;-71
2022/09/28 05:29:27;;;;;;;35.30;28.87;;;;;;;19.18;100.00;99083.72;1756684;81;21035;-72
2022/09/28 05:32:12;;;;;;;36.73;28.20;;;;;;;19.30;100.00;99084.26;1754726;81;21070;-72
2022/09/28 05:35:00;;;;;;;34.98;26.15;;;;;;;19.37;100.00;99081.33;1754026;81;21642;-72
2022/09/28 05:37:30;;;;;;;36.73;27.95;;;;;;;19.44;100.00;99088.52;1757203;81;21121;-72
2022/09/28 05:39:58;;;;;;;38.30;27.77;;;;;;;19.49;100.00;99096.70;1754778;81;21515;-72
2022/09/28 05:42:25;;;;;;;34.85;28.05;;;;;;;19.50;100.00;99100.43;1757389;80;21083;-73
2022/09/28 05:44:52;;;;;;;36.58;28.10;;;;;;;19.69;100.00;99108.48;1756443;81;21516;-73
2022/09/28 05:47:21;;;;;;;35.80;28.02;;;;;;;19.78;100.00;99116.67;1757176;81;22605;-73
2022/09/28 05:49:48;;;;;;;33.45;26.82;;;;;;;19.95;100.00;99127.13;1755371;81;21032;-72
2022/09/28 05:52:15;;;;;;;34.30;27.10;;;;;;;19.99;100.00;99129.28;1755028;80;21059;-72
2022/09/28 05:54:42;;;;;;;35.05;27.55;;;;;;;20.15;100.00;99141.55;1757345;81;21043;-72
2022/09/28 05:57:09;;;;;;;35.88;26.95;;;;;;;20.40;100.00;99146.27;1754939;81;21118;-72
2022/09/28 05:59:36;;;;;;;35.30;26.45;;;;;;;20.43;100.00;99156.88;1755087;81;21031;-71
2022/09/28 06:02:04;;;;;;;35.80;26.37;;;;;;;20.42;100.00;99160.48;1755069;81;21487;-71
2022/09/28 06:04:31;;;;;;;32.60;24.90;;;;;;;20.37;100.00;99166.18;1758386;81;21069;-71
2022/09/28 06:06:59;;;;;;;33.98;26.55;;;;;;;20.54;100.00;99168.78;1757362;81;21083;-71
2022/09/28 06:09:26;;;;;;;34.40;27.07;;;;;;;20.53;100.00;99176.31;1746144;80;21036;-72
2022/09/28 06:12:04;;;;;;;32.65;24.57;;;;;;;20.84;100.00;99169.11;1754344;81;21114;-72
2022/09/28 06:14:43;;;;;;;34.92;26.27;;;;;;;20.93;100.00;99186.44;1758488;81;21051;-71
2022/09/28 06:17:11;;;;;;;31.15;24.52;;;;;;;21.05;100.00;99191.64;1760211;80;21046;-72
2022/09/28 06:19:39;;;;;;;30.15;24.90;;;;;;;21.14;100.00;99206.81;1757612;81;21043;-71
2022/09/28 06:22:09;;;;;;;31.70;26.02;;;;;;;21.22;100.00;99214.64;1755350;81;21078;-72
2022/09/28 06:24:38;;;;;;;31.12;23.85;;;;;;;21.08;100.00;99221.88;1754388;81;21039;-72
2022/09/28 06:27:05;;;;;;;29.02;24.10;;;;;;;20.93;100.00;99222.56;1760055;81;21117;-71
2022/09/28 06:29:32;;;;;;;27.05;22.60;;;;;;;20.85;100.00;99217.84;1759601;81;21071;-72
2022/09/28 06:32:00;;;;;;;29.45;21.33;;;;;;;20.98;100.00;99215.02;1755130;81;21019;-72
2022/09/28 06:34:28;;;;;;;30.15;23.65;;;;;;;20.89;100.00;99221.26;1754367;82;21069;-72
2022/09/28 06:36:55;;;;;;;31.80;23.80;;;;;;;20.92;100.00;99227.45;1754439;80;21059;-73
2022/09/28 06:39:24;;;;;;;27.22;23.32;;;;;;;21.11;100.00;99234.14;1754407;82;21023;-72
2022/09/28 06:41:51;;;;;;;32.63;23.75;;;;;;;21.17;100.00;99236.09;1755901;81;21062;-72
2022/09/28 06:44:20;;;;;;;29.42;23.25;;;;;;;21.20;100.00;99248.02;1758437;80;21058;-72
2022/09/28 06:46:58;;;;;;;49.95;32.03;;;;;;;21.10;100.00;99252.12;1721083;82;21345;-72
2022/09/28 06:49:29;;;;;;;64.25;37.35;;;;;;;21.03;100.00;99269.98;1748290;81;21078;-72
2022/09/28 06:52:15;;;;;;;67.67;37.17;;;;;;;20.95;100.00;99270.80;1753654;81;21545;-72
2022/09/28 06:55:03;;;;;;;67.15;38.15;;;;;;;21.16;100.00;99284.66;1754871;80;21061;-72
2022/09/28 06:57:33;;;;;;;67.03;38.92;;;;;;;21.00;100.00;99295.95;1756714;80;21082;-72
2022/09/28 07:00:00;;;;;;;73.20;38.85;;;;;;;21.12;100.00;99293.83;1755201;81;21074;-72
2022/09/28 07:02:27;;;;;;;64.37;36.98;;;;;;;21.10;100.00;99301.02;1754517;81;21034;-72
2022/09/28 07:05:12;;;;;;;68.20;38.40;;;;;;;20.78;100.00;99298.27;1652741;86;21068;-72
2022/09/28 07:07:43;;;;;;;62.33;37.23;;;;;;;20.84;100.00;99296.77;1710762;82;21019;-72
2022/09/28 07:10:18;;;;;;;67.70;37.35;;;;;;;20.93;100.00;99294.50;1693794;82;21101;-71
2022/09/28 07:13:04;;;;;;;64.17;37.35;;;;;;;21.00;100.00;99296.80;1754190;80;21578;-73
2022/09/28 07:15:37;;;;;;;64.35;37.13;;;;;;;20.99;100.00;99293.84;1755204;80;21063;-73
2022/09/28 07:18:06;;;;;;;62.85;35.33;;;;;;;20.86;100.00;99308.39;1756290;81;21582;-73
2022/09/28 07:20:36;;;;;;;61.45;35.92;;;;;;;20.75;100.00;99312.16;1754800;80;21165;-72
2022/09/28 07:23:06;;;;;;;62.58;35.65;;;;;;;20.72;100.00;99315.08;1756624;80;21007;-73
2022/09/28 07:25:37;;;;;;;63.63;37.08;;;;;;;20.67;100.00;99325.22;1756492;81;21023;-73
2022/09/28 07:28:22;;;;;;;60.60;34.38;;;;;;;20.53;100.00;99324.02;1757124;80;21601;-72
2022/09/28 07:31:09;;;;;;;64.27;35.35;;;;;;;20.48;100.00;99331.52;1750350;80;21075;-72
2022/09/28 07:33:50;;;;;;;60.67;33.23;;;;;;;20.46;100.00;99337.39;1705555;82;21218;-72
2022/09/28 07:36:19;;;;;;;61.85;35.20;;;;;;;20.36;100.00;99339.67;1764839;80;21031;-72
2022/09/28 07:38:47;;;;;;;59.33;33.30;;;;;;;20.07;100.00;99323.56;1778241;80;21117;-72
2022/09/28 07:41:20;;;;;;;55.28;32.28;;;;;;;20.32;100.00;99329.20;1758247;81;21070;-72
2022/09/28 07:43:45;;;;;;;55.65;32.08;;;;;;;20.28;100.00;99325.77;1740658;80;21094;-72
2022/09/28 07:46:12;;;;;;;56.30;32.35;;;;;;;20.40;100.00;99325.30;1754093;81;21504;-72
2022/09/28 07:48:46;;;;;;;50.88;30.10;;;;;;;20.34;100.00;99327.25;1752638;82;21608;-72
2022/09/28 07:51:24;;;;;;;56.37;31.95;;;;;;;20.59;100.00;99335.17;1686575;82;22224;-72
2022/09/28 07:53:59;;;;;;;53.30;30.92;;;;;;;20.70;100.00;99337.49;1736437;81;21061;-72
2022/09/28 07:56:36;;;;;;;51.75;29.20;;;;;;;20.53;100.00;99339.21;1743156;81;21103;-72
2022/09/28 07:59:04;;;;;;;49.63;29.67;;;;;;;20.51;100.00;99344.28;1751421;81;21515;-72
2022/09/28 08:01:41;;;;;;;45.80;28.30;;;;;;;20.27;100.00;99344.53;1752241;81;21066;-72
2022/09/28 08:04:10;;;;;;;46.08;28.38;;;;;;;20.27;100.00;99334.08;1750737;81;21613;-72
2022/09/28 08:06:39;;;;;;;49.03;27.95;;;;;;;20.30;100.00;99338.20;1744844;79;21661;-72
2022/09/28 08:09:07;;;;;;;48.70;28.42;;;;;;;20.45;100.00;99335.27;1743883;82;21050;-72
2022/09/28 08:11:53;;;;;;;45.88;27.05;;;;;;;20.44;100.00;99342.80;1749451;80;21100;-72
2022/09/28 08:14:27;;;;;;;47.10;26.65;;;;;;;20.64;100.00;99337.30;1750382;81;21063;-72
2022/09/28 08:17:06;;;;;;;42.35;26.48;;;;;;;20.89;100.00;99342.89;1722948;81;21619;-72
2022/09/28 08:22:33;;;;;;;47.15;25.65;;;;;;;20.92;100.00;99344.36;1735611;81;21083;-72
2022/09/28 08:25:00;;;;;;;47.73;26.60;;;;;;;20.88;100.00;99358.24;1737951;81;21034;-72
2022/09/28 08:27:30;;;;;;;45.17;25.45;;;;;;;20.84;100.00;99350.89;1739316;81;21111;-72
2022/09/28 08:29:57;;;;;;;44.90;25.75;;;;;;;20.98;100.00;99350.24;1736860;81;21103;-72
2022/09/28 08:32:34;;;;;;;43.48;23.90;;;;;;;21.14;100.00;99360.70;1753143;81;21054;-73
2022/09/28 08:35:19;;;;;;;38.17;24.27;;;;;;;21.17;100.00;99362.20;1737513;81;21056;-73
2022/09/28 08:37:58;;;;;;;41.50;25.37;;;;;;;21.04;100.00;99366.59;1735005;80;21149;-72
2022/09/28 08:40:56;;;;;;;47.60;27.98;;;;;;;21.05;100.00;99363.52;1736499;81;21008;-72
2022/09/28 08:44:00;;;;;;;44.75;26.42;;;;;;;21.01;100.00;99363.02;1728714;81;21062;-72
2022/09/28 08:46:40;;;;;;;43.10;25.82;;;;;;;21.11;100.00;99359.74;1711882;82;21082;-73
2022/09/28 08:49:35;;;;;;;46.30;26.45;;;;;;;21.01;100.00;99362.52;1740596;81;21130;-72
2022/09/28 08:52:18;;;;;;;41.68;25.20;;;;;;;20.92;100.00;99358.25;1737066;82;21661;-73
2022/09/28 08:55:04;;;;;;;41.90;24.72;;;;;;;20.74;100.00;99357.11;1734029;80;21012;-72
2022/09/28 08:58:00;;;;;;;42.55;25.97;;;;;;;20.82;100.00;99354.97;1746071;81;21046;-72
2022/09/28 09:00:50;;;;;;;44.75;25.60;;;;;;;20.79;100.00;99355.31;1727448;80;21035;-72
2022/09/28 09:03:24;;;;;;;42.20;26.02;;;;;;;20.80;100.00;99359.08;1692269;82;21074;-72
2022/09/28 09:06:22;;;;;;;44.50;25.55;;;;;;;20.81;100.00;99352.85;1708121;82;21063;-73
2022/09/28 09:09:16;;;;;;;44.35;26.97;;;;;;;20.74;100.00;99361.50;1718780;82;21106;-73
2022/09/28 09:12:09;;;;;;;39.63;24.98;;;;;;;20.46;100.00;99357.00;1742967;80;21111;-73
2022/09/28 09:15:05;;;;;;;38.67;24.98;;;;;;;20.46;100.00;99360.45;1742200;80;21526;-73
2022/09/28 09:18:32;;;;;;;40.83;26.48;;;;;;;20.24;100.00;99350.59;1746161;81;21062;-73
2022/09/28 09:21:36;;;;;;;40.92;25.32;;;;;;;20.54;100.00;99335.63;1756007;80;21129;-74
2022/09/28 09:24:29;;;;;;;37.42;24.80;;;;;;;21.13;100.00;99351.73;1751512;80;21079;-74
2022/09/28 09:27:07;;;;;;;39.67;25.60;;;;;;;21.07;100.00;99363.67;1769812;80;21684;-73
2022/09/28 09:30:13;;;;;;;37.80;24.98;;;;;;;21.05;100.00;99366.94;1759679;80;21032;-73
2022/09/28 09:32:48;;;;;;;40.35;26.33;;;;;;;20.86;100.00;99360.20;1761729;80;21015;-73
2022/09/28 09:35:36;;;;;;;40.23;26.15;;;;;;;21.04;100.00;99363.17;1759313;80;21109;-73
2022/09/28 09:38:51;;;;;;;40.58;25.48;;;;;;;21.35;100.00;99363.31;1771586;79;21535;-72
2022/09/28 09:41:43;;;;;;;40.38;26.37;;;;;;;21.67;100.00;99360.35;1667458;83;21134;-73
2022/09/28 09:44:30;;;;;;;38.95;25.32;;;;;;;21.60;100.00;99367.56;1746233;80;21531;-73
2022/09/28 09:47:12;;;;;;;37.73;25.15;;;;;;;21.69;100.00;99368.86;1741184;81;21066;-73
2022/09/28 09:49:51;;;;;;;38.50;24.87;;;;;;;21.76;100.00;99375.08;1773967;80;21081;-72
2022/09/28 09:52:43;;;;;;;36.00;24.35;;;;;;;21.65;100.00;99367.56;1708821;82;21523;-72
2022/09/28 09:55:15;;;;;;;38.60;26.93;;;;;;;21.72;100.00;99368.54;1705180;82;21131;-72
2022/09/28 09:58:17;;;;;;;44.75;27.80;;;;;;;21.89;100.00;99375.84;1748196;81;21071;-72
2022/09/28 10:00:50;;;;;;;40.98;27.82;;;;;;;21.90;100.00;99370.95;1696601;82;21063;-73
2022/09/28 10:03:29;;;;;;;40.95;28.35;;;;;;;21.84;100.00;99379.45;1726867;82;21032;-73
2022/09/28 10:06:15;;;;;;;46.80;30.50;;;;;;;21.62;100.00;99385.73;1700695;83;21103;-72
2022/09/28 10:08:54;;;;;;;50.92;33.15;;;;;;;21.56;100.00;99380.67;1701171;83;21103;-72
2022/09/28 10:11:34;;;;;;;51.00;32.88;;;;;;;21.46;100.00;99380.03;1766264;80;21063;-73
2022/09/28 10:14:03;;;;;;;51.25;33.38;;;;;;;21.40;100.00;99378.85;1719470;82;21055;-72
2022/09/28 10:16:43;;;;;;;49.90;32.40;;;;;;;21.60;100.00;99390.33;1759747;80;21055;-73
2022/09/28 10:19:12;;;;;;;48.38;32.42;;;;;;;21.38;100.00;99388.67;1771847;80;21054;-72
2022/09/28 10:21:40;;;;;;;47.80;31.60;;;;;;;21.46;100.00;99389.19;1772310;80;21045;-72
2022/09/28 10:24:33;;;;;;;46.20;31.35;;;;;;;21.72;100.00;99386.38;1762498;80;21067;-73
2022/09/28 10:27:07;;;;;;;45.83;30.10;;;;;;;22.12;100.00;99396.42;1770095;80;21047;-73
2022/09/28 10:30:03;;;;;;;43.73;28.62;;;;;;;22.43;100.00;99410.58;1763830;80;21106;-72
2022/09/28 10:32:42;;;;;;;43.95;29.55;;;;;;;22.37;100.00;99403.70;1758355;80;21067;-72
2022/09/28 10:35:17;;;;;;;44.73;28.20;;;;;;;22.49;100.00;99409.89;1771518;80;21538;-72
2022/09/28 10:38:03;;;;;;;41.70;28.35;;;;;;;22.72;100.00;99412.55;1773694;79;21039;-72
2022/09/28 10:40:53;;;;;;;42.15;28.12;;;;;;;22.72;100.00;99407.30;1761004;80;21103;-74
2022/09/28 10:43:37;;;;;;;38.48;27.22;;;;;;;22.58;100.00;99410.97;1753569;80;21572;-73
2022/09/28 10:46:12;;;;;;;39.75;27.65;;;;;;;22.75;100.00;99416.95;1759853;80;21030;-74
2022/09/28 10:48:55;;;;;;;44.23;28.23;;;;;;;22.75;100.00;99412.18;1774557;81;21065;-73
2022/09/28 10:51:54;;;;;;;44.30;27.87;;;;;;;22.75;100.00;99412.18;1766081;80;21069;-73
2022/09/28 10:54:30;;;;;;;42.67;28.10;;;;;;;22.70;100.00;99412.71;1721632;82;21653;-72
2022/09/28 10:57:00;;;;;;;44.38;28.55;;;;;;;22.65;100.00;99411.12;1754889;80;21035;-73
2022/09/28 10:59:34;;;;;;;38.10;27.52;;;;;;;22.89;100.00;99404.06;1748146;81;21558;-73
2022/09/28 11:02:28;;;;;;;40.85;27.42;;;;;;;22.90;100.00;99418.33;1753693;81;21055;-72
2022/09/28 11:05:01;;;;;;;37.55;25.95;;;;;;;22.90;100.00;99418.33;1753860;82;21038;-73
2022/09/28 11:07:36;;;;;;;38.80;26.85;;;;;;;22.78;100.00;99413.97;1754130;80;21098;-73
2022/09/28 11:10:05;;;;;;;40.03;26.85;;;;;;;22.70;100.00;99424.52;1743346;80;21541;-73
2022/09/28 11:12:40;;;;;;;36.58;25.85;;;;;;;22.72;100.00;99424.34;1746451;80;21070;-73
2022/09/28 11:15:13;;;;;;;39.03;25.23;;;;;;;22.69;100.00;99428.61;1753515;81;21066;-73
2022/09/28 11:17:42;;;;;;;35.58;24.57;;;;;;;22.55;100.00;99422.32;1680619;81;21051;-74
2022/09/28 11:20:28;;;;;;;36.03;25.37;;;;;;;22.79;100.00;99430.05;1742467;81;21505;-72
2022/09/28 11:22:59;;;;;;;34.65;23.67;;;;;;;22.52;100.00;99426.58;1718993;82;21073;-71
2022/09/28 11:25:30;;;;;;;34.33;24.60;;;;;;;22.29;100.00;99426.53;1724159;82;21521;-71
2022/09/28 11:28:00;;;;;;;39.50;25.27;;;;;;;22.33;100.00;99426.01;1719197;82;21111;-71
2022/09/28 11:30:44;;;;;;;38.98;25.65;;;;;;;22.19;100.00;99420.95;1700131;83;21041;-71
2022/09/28 11:33:29;;;;;;;36.13;25.15;;;;;;;22.03;100.00;99412.33;1681990;83;21057;-71
2022/09/28 11:36:17;;;;;;;40.63;26.17;;;;;;;22.03;100.00;99412.33;1693087;84;21112;-71
2022/09/28 11:39:07;;;;;;;38.78;25.55;;;;;;;21.82;100.00;99413.70;1729034;81;21060;-71
2022/09/28 11:42:11;;;;;;;39.95;26.93;;;;;;;21.62;100.00;99402.77;1692887;82;21084;-71
2022/09/28 11:44:49;;;;;;;40.60;25.43;;;;;;;21.67;100.00;99404.88;1742874;81;21080;-71
2022/09/28 11:47:43;;;;;;;38.48;25.50;;;;;;;21.97;100.00;99405.45;1721463;82;21569;-71
2022/09/28 11:50:50;;;;;;;34.97;23.80;;;;;;;21.99;100.00;99407.91;1724592;82;21098;-71
2022/09/28 11:53:39;;;;;;;34.40;22.80;;;;;;;21.96;100.00;99413.01;1691209;85;21019;-71
2022/09/28 11:56:39;;;;;;;34.67;21.73;;;;;;;21.94;100.00;99405.81;1670306;84;21059;-70
2022/09/28 11:59:15;;;;;;;32.40;20.85;;;;;;;21.77;100.00;99407.63;1700494;84;21659;-71